N47WC KMSY-KPDK
Flight info
| Callsign | N47WC |
|---|---|
| Flight time | 2h 10m |
| Altitude | 11000 |
| Route | GARTS KMGM KEEPS BOKRT3 |
| Aircraft | BE58/L-SDFGRY/C |
Departure
| Time | 2026-04-25 16:04 |
|---|---|
| Airport | Louis Armstrong New Orleans International Airport (KMSY) |
Arrival
| Time | 2026-04-25 18:15 |
|---|---|
| Airport | DeKalb Peachtree Airport (KPDK) |
| Time | Latitude | Longitude | Altitude | Speed | Heading |
|---|---|---|---|---|---|
| 2026-04-25 15:36 | 29.99617 | -90.26303 | 3 ft | 0 kts | 21° |
| 2026-04-25 16:01 | 29.99620 | -90.26302 | 3 ft | 4 kts | 21° |
| 2026-04-25 16:01 | 29.99616 | -90.26346 | 4 ft | 14 kts | 211° |
| 2026-04-25 16:01 | 29.99504 | -90.26392 | 3 ft | 18 kts | 216° |
| 2026-04-25 16:01 | 29.99495 | -90.26536 | 5 ft | 23 kts | 285° |
| 2026-04-25 16:02 | 29.99547 | -90.26748 | 5 ft | 30 kts | 285° |
| 2026-04-25 16:02 | 29.99611 | -90.27008 | 4 ft | 34 kts | 286° |
| 2026-04-25 16:02 | 29.99676 | -90.27287 | -1 ft | 35 kts | 287° |
| 2026-04-25 16:02 | 29.99730 | -90.27504 | -2 ft | 24 kts | 285° |
| 2026-04-25 16:03 | 29.99741 | -90.27636 | -2 ft | 15 kts | 236° |
| 2026-04-25 16:03 | 29.99676 | -90.27682 | -4 ft | 2 kts | 191° |
| 2026-04-25 16:03 | 29.99652 | -90.27688 | -5 ft | 6 kts | 193° |
| 2026-04-25 16:03 | 29.99594 | -90.27701 | -6 ft | 13 kts | 200° |
| 2026-04-25 16:04 | 29.99549 | -90.27707 | -5 ft | 0 kts | 100° |
| 2026-04-25 16:04 | 29.99506 | -90.27522 | -4 ft | 66 kts | 105° |
| 2026-04-25 16:04 | 29.99339 | -90.26823 | 253 ft | 96 kts | 105° |
| 2026-04-25 16:04 | 29.99175 | -90.26040 | 679 ft | 111 kts | 102° |
| 2026-04-25 16:05 | 29.98972 | -90.25077 | 939 ft | 131 kts | 104° |
| 2026-04-25 16:05 | 29.98722 | -90.24042 | 1376 ft | 134 kts | 107° |
| 2026-04-25 16:05 | 29.98277 | -90.21976 | 2322 ft | 136 kts | 93° |
| 2026-04-25 16:06 | 29.98555 | -90.20989 | 2802 ft | 130 kts | 38° |
| 2026-04-25 16:06 | 29.99355 | -90.20686 | 3248 ft | 121 kts | 1° |
| 2026-04-25 16:06 | 30.00182 | -90.20539 | 3675 ft | 120 kts | 2° |
| 2026-04-25 16:06 | 30.01000 | -90.20373 | 4097 ft | 121 kts | 3° |
| 2026-04-25 16:07 | 30.01852 | -90.20217 | 4444 ft | 128 kts | 1° |
| 2026-04-25 16:07 | 30.02450 | -90.20102 | 4648 ft | 134 kts | 3° |
| 2026-04-25 16:07 | 30.03702 | -90.19863 | 5060 ft | 141 kts | 2° |
| 2026-04-25 16:07 | 30.04687 | -90.19684 | 5367 ft | 145 kts | 2° |
| 2026-04-25 16:08 | 30.05694 | -90.19500 | 5671 ft | 148 kts | 2° |
| 2026-04-25 16:08 | 30.06703 | -90.19311 | 6019 ft | 146 kts | 2° |
| 2026-04-25 16:08 | 30.07705 | -90.19119 | 6365 ft | 145 kts | 2° |
| 2026-04-25 16:08 | 30.08690 | -90.18873 | 6686 ft | 147 kts | 13° |
| 2026-04-25 16:09 | 30.09638 | -90.18428 | 7013 ft | 146 kts | 15° |
| 2026-04-25 16:09 | 30.10572 | -90.17978 | 7339 ft | 145 kts | 15° |
| 2026-04-25 16:09 | 30.11486 | -90.17532 | 7667 ft | 144 kts | 15° |
| 2026-04-25 16:09 | 30.12396 | -90.17075 | 8005 ft | 141 kts | 15° |
| 2026-04-25 16:10 | 30.13286 | -90.16617 | 8340 ft | 139 kts | 15° |
| 2026-04-25 16:10 | 30.14165 | -90.16158 | 8645 ft | 139 kts | 15° |
| 2026-04-25 16:10 | 30.15047 | -90.15697 | 8940 ft | 139 kts | 15° |
| 2026-04-25 16:10 | 30.15920 | -90.15236 | 9238 ft | 138 kts | 15° |
| 2026-04-25 16:11 | 30.16739 | -90.14640 | 9525 ft | 147 kts | 44° |
| 2026-04-25 16:11 | 30.17306 | -90.13625 | 9785 ft | 151 kts | 51° |
| 2026-04-25 16:11 | 30.17873 | -90.12615 | 10007 ft | 152 kts | 50° |
| 2026-04-25 16:11 | 30.18465 | -90.11578 | 10199 ft | 156 kts | 50° |
| 2026-04-25 16:12 | 30.19069 | -90.10521 | 10394 ft | 159 kts | 50° |
| 2026-04-25 16:12 | 30.19680 | -90.09450 | 10586 ft | 160 kts | 49° |
| 2026-04-25 16:12 | 30.20298 | -90.08368 | 10780 ft | 162 kts | 49° |
| 2026-04-25 16:12 | 30.20710 | -90.07648 | 10908 ft | 163 kts | 49° |
| 2026-04-25 16:13 | 30.21570 | -90.06146 | 11016 ft | 175 kts | 50° |
| 2026-04-25 16:13 | 30.22264 | -90.04932 | 11021 ft | 186 kts | 50° |
| 2026-04-25 16:13 | 30.22991 | -90.03655 | 11020 ft | 194 kts | 51° |
| 2026-04-25 16:13 | 30.23742 | -90.02338 | 10995 ft | 198 kts | 51° |
| 2026-04-25 16:14 | 30.24507 | -90.00995 | 10995 ft | 202 kts | 51° |
| 2026-04-25 16:14 | 30.25277 | -89.99644 | 11012 ft | 205 kts | 51° |
| 2026-04-25 16:14 | 30.26063 | -89.98265 | 11014 ft | 205 kts | 51° |
| 2026-04-25 16:14 | 30.26849 | -89.96886 | 11017 ft | 206 kts | 51° |
| 2026-04-25 16:15 | 30.27640 | -89.95499 | 11019 ft | 207 kts | 51° |
| 2026-04-25 16:15 | 30.28437 | -89.94098 | 11020 ft | 208 kts | 51° |
| 2026-04-25 16:15 | 30.29235 | -89.92697 | 11022 ft | 209 kts | 51° |
| 2026-04-25 16:15 | 30.30037 | -89.91288 | 11023 ft | 209 kts | 51° |
| 2026-04-25 16:16 | 30.30835 | -89.89883 | 11024 ft | 208 kts | 51° |
| 2026-04-25 16:16 | 30.31631 | -89.88485 | 11023 ft | 207 kts | 51° |
| 2026-04-25 16:16 | 30.32413 | -89.87110 | 11021 ft | 207 kts | 51° |
| 2026-04-25 16:16 | 30.33203 | -89.85721 | 11020 ft | 206 kts | 51° |
| 2026-04-25 16:17 | 30.33989 | -89.84337 | 11020 ft | 206 kts | 51° |
| 2026-04-25 16:17 | 30.34776 | -89.82952 | 11019 ft | 206 kts | 51° |
| 2026-04-25 16:17 | 30.35562 | -89.81567 | 11019 ft | 206 kts | 51° |
| 2026-04-25 16:17 | 30.36350 | -89.80180 | 11018 ft | 206 kts | 51° |
| 2026-04-25 16:18 | 30.37135 | -89.78797 | 11017 ft | 206 kts | 51° |
| 2026-04-25 16:18 | 30.37400 | -89.78330 | 11018 ft | 206 kts | 51° |
| 2026-04-25 16:18 | 30.38704 | -89.76030 | 11017 ft | 205 kts | 51° |
| 2026-04-25 16:18 | 30.39490 | -89.74644 | 11016 ft | 206 kts | 51° |
| 2026-04-25 16:19 | 30.40276 | -89.73259 | 11022 ft | 206 kts | 51° |
| 2026-04-25 16:19 | 30.41063 | -89.71869 | 11012 ft | 206 kts | 52° |
| 2026-04-25 16:19 | 30.41851 | -89.70476 | 11012 ft | 206 kts | 51° |
| 2026-04-25 16:20 | 30.43417 | -89.67710 | 11014 ft | 206 kts | 51° |
| 2026-04-25 16:20 | 30.44207 | -89.66314 | 11016 ft | 207 kts | 51° |
| 2026-04-25 16:20 | 30.45793 | -89.63508 | 11013 ft | 209 kts | 52° |
| 2026-04-25 16:21 | 30.46591 | -89.62095 | 11012 ft | 209 kts | 52° |
| 2026-04-25 16:21 | 30.47384 | -89.60692 | 11011 ft | 208 kts | 52° |
| 2026-04-25 16:21 | 30.48179 | -89.59284 | 11012 ft | 208 kts | 52° |
| 2026-04-25 16:21 | 30.48970 | -89.57883 | 11010 ft | 207 kts | 52° |
| 2026-04-25 16:22 | 30.49760 | -89.56483 | 11000 ft | 207 kts | 52° |
| 2026-04-25 16:22 | 30.50551 | -89.55082 | 11001 ft | 207 kts | 52° |
| 2026-04-25 16:22 | 30.51340 | -89.53683 | 10998 ft | 207 kts | 51° |
| 2026-04-25 16:22 | 30.52127 | -89.52286 | 11000 ft | 207 kts | 52° |
| 2026-04-25 16:23 | 30.52906 | -89.50904 | 11001 ft | 208 kts | 52° |
| 2026-04-25 16:23 | 30.53698 | -89.49498 | 10999 ft | 208 kts | 52° |
| 2026-04-25 16:23 | 30.54490 | -89.48092 | 10998 ft | 208 kts | 52° |
| 2026-04-25 16:23 | 30.55279 | -89.46688 | 10996 ft | 207 kts | 52° |
| 2026-04-25 16:24 | 30.56067 | -89.45289 | 10992 ft | 207 kts | 52° |
| 2026-04-25 16:24 | 30.56857 | -89.43885 | 10992 ft | 207 kts | 52° |
| 2026-04-25 16:24 | 30.57643 | -89.42488 | 10997 ft | 207 kts | 52° |
| 2026-04-25 16:24 | 30.58431 | -89.41086 | 10996 ft | 207 kts | 52° |
| 2026-04-25 16:25 | 30.58951 | -89.40160 | 10996 ft | 207 kts | 52° |
| 2026-04-25 16:25 | 30.59484 | -89.39211 | 10995 ft | 207 kts | 52° |
| 2026-04-25 16:25 | 30.60791 | -89.36884 | 10988 ft | 207 kts | 52° |
| 2026-04-25 16:25 | 30.61576 | -89.35486 | 10990 ft | 207 kts | 52° |
| 2026-04-25 16:26 | 30.62369 | -89.34073 | 10992 ft | 210 kts | 52° |
| 2026-04-25 16:26 | 30.63168 | -89.32649 | 10987 ft | 211 kts | 52° |
| 2026-04-25 16:26 | 30.63951 | -89.31252 | 10982 ft | 210 kts | 52° |
| 2026-04-25 16:26 | 30.64748 | -89.29829 | 10979 ft | 209 kts | 52° |
| 2026-04-25 16:27 | 30.65538 | -89.28419 | 10977 ft | 208 kts | 52° |
| 2026-04-25 16:27 | 30.66331 | -89.27004 | 10977 ft | 208 kts | 52° |
| 2026-04-25 16:27 | 30.67119 | -89.25596 | 10974 ft | 208 kts | 52° |
| 2026-04-25 16:27 | 30.67904 | -89.24194 | 10974 ft | 207 kts | 52° |
| 2026-04-25 16:28 | 30.68690 | -89.22790 | 10974 ft | 207 kts | 51° |
| 2026-04-25 16:28 | 30.69458 | -89.21416 | 10975 ft | 207 kts | 51° |
| 2026-04-25 16:28 | 30.70233 | -89.20031 | 10977 ft | 207 kts | 51° |
| 2026-04-25 16:28 | 30.71018 | -89.18625 | 10977 ft | 208 kts | 51° |
| 2026-04-25 16:29 | 30.71804 | -89.17218 | 10976 ft | 207 kts | 51° |
| 2026-04-25 16:29 | 30.72587 | -89.15817 | 10977 ft | 206 kts | 51° |
| 2026-04-25 16:29 | 30.73368 | -89.14418 | 10975 ft | 207 kts | 51° |
| 2026-04-25 16:29 | 30.74150 | -89.13017 | 10969 ft | 206 kts | 51° |
| 2026-04-25 16:30 | 30.74934 | -89.11612 | 10973 ft | 206 kts | 51° |
| 2026-04-25 16:30 | 30.75716 | -89.10211 | 10970 ft | 206 kts | 51° |
| 2026-04-25 16:30 | 30.76496 | -89.08811 | 10969 ft | 206 kts | 51° |
| 2026-04-25 16:30 | 30.77277 | -89.07412 | 10963 ft | 206 kts | 51° |
| 2026-04-25 16:31 | 30.78055 | -89.06014 | 10964 ft | 206 kts | 51° |
| 2026-04-25 16:31 | 30.78837 | -89.04609 | 10963 ft | 206 kts | 51° |
| 2026-04-25 16:31 | 30.79615 | -89.03213 | 10964 ft | 206 kts | 52° |
| 2026-04-25 16:31 | 30.80393 | -89.01814 | 10962 ft | 206 kts | 52° |
| 2026-04-25 16:32 | 30.81146 | -89.00462 | 10963 ft | 206 kts | 51° |
| 2026-04-25 16:32 | 30.81949 | -88.99017 | 10963 ft | 206 kts | 52° |
| 2026-04-25 16:32 | 30.82718 | -88.97635 | 10964 ft | 206 kts | 51° |
| 2026-04-25 16:32 | 30.83495 | -88.96237 | 10963 ft | 206 kts | 52° |
| 2026-04-25 16:33 | 30.84275 | -88.94834 | 10964 ft | 206 kts | 52° |
| 2026-04-25 16:33 | 30.85051 | -88.93435 | 10963 ft | 206 kts | 51° |
| 2026-04-25 16:33 | 30.85830 | -88.92032 | 10966 ft | 206 kts | 52° |
| 2026-04-25 16:33 | 30.86607 | -88.90633 | 10966 ft | 206 kts | 52° |
| 2026-04-25 16:34 | 30.87384 | -88.89233 | 10964 ft | 206 kts | 52° |
| 2026-04-25 16:34 | 30.88162 | -88.87829 | 10964 ft | 206 kts | 52° |
| 2026-04-25 16:34 | 30.88939 | -88.86427 | 10962 ft | 206 kts | 51° |
| 2026-04-25 16:34 | 30.89714 | -88.85029 | 10955 ft | 206 kts | 52° |
| 2026-04-25 16:35 | 30.90489 | -88.83628 | 10960 ft | 205 kts | 51° |
| 2026-04-25 16:35 | 30.91251 | -88.82255 | 10958 ft | 204 kts | 51° |
| 2026-04-25 16:35 | 30.92020 | -88.80865 | 10960 ft | 204 kts | 52° |
| 2026-04-25 16:35 | 30.92790 | -88.79474 | 10959 ft | 204 kts | 51° |
| 2026-04-25 16:36 | 30.93558 | -88.78085 | 10956 ft | 203 kts | 51° |
| 2026-04-25 16:36 | 30.93817 | -88.77617 | 10951 ft | 203 kts | 51° |
| 2026-04-25 16:36 | 30.95089 | -88.75316 | 10958 ft | 203 kts | 52° |
| 2026-04-25 16:36 | 30.95855 | -88.73931 | 10949 ft | 203 kts | 52° |
| 2026-04-25 16:37 | 30.96611 | -88.72562 | 10950 ft | 203 kts | 52° |
| 2026-04-25 16:37 | 30.97376 | -88.71177 | 10950 ft | 203 kts | 52° |
| 2026-04-25 16:37 | 30.98142 | -88.69789 | 10951 ft | 203 kts | 52° |
| 2026-04-25 16:37 | 30.98906 | -88.68405 | 10951 ft | 203 kts | 52° |
| 2026-04-25 16:38 | 30.99672 | -88.67017 | 10950 ft | 203 kts | 52° |
| 2026-04-25 16:38 | 31.00436 | -88.65632 | 10949 ft | 203 kts | 52° |
| 2026-04-25 16:38 | 31.01201 | -88.64243 | 10950 ft | 203 kts | 52° |
| 2026-04-25 16:38 | 31.01965 | -88.62858 | 10951 ft | 203 kts | 52° |
| 2026-04-25 16:39 | 31.02728 | -88.61472 | 10942 ft | 203 kts | 52° |
| 2026-04-25 16:39 | 31.03485 | -88.60098 | 10944 ft | 204 kts | 52° |
| 2026-04-25 16:39 | 31.04250 | -88.58708 | 10943 ft | 204 kts | 52° |
| 2026-04-25 16:39 | 31.05016 | -88.57316 | 10944 ft | 204 kts | 52° |
| 2026-04-25 16:40 | 31.05785 | -88.55920 | 10941 ft | 204 kts | 52° |
| 2026-04-25 16:40 | 31.06551 | -88.54525 | 10943 ft | 204 kts | 52° |
| 2026-04-25 16:40 | 31.07058 | -88.53602 | 10946 ft | 204 kts | 52° |
| 2026-04-25 16:40 | 31.07827 | -88.52205 | 10947 ft | 205 kts | 52° |
| 2026-04-25 16:41 | 31.08857 | -88.50327 | 10948 ft | 205 kts | 52° |
| 2026-04-25 16:41 | 31.09106 | -88.49874 | 10947 ft | 205 kts | 52° |
| 2026-04-25 16:41 | 31.10964 | -88.46673 | 10943 ft | 204 kts | 51° |
| 2026-04-25 16:42 | 31.11756 | -88.45303 | 10944 ft | 203 kts | 50° |
| 2026-04-25 16:42 | 31.12555 | -88.43941 | 10938 ft | 203 kts | 50° |
| 2026-04-25 16:42 | 31.13356 | -88.42585 | 10943 ft | 203 kts | 50° |
| 2026-04-25 16:42 | 31.14160 | -88.41220 | 10942 ft | 204 kts | 50° |
| 2026-04-25 16:43 | 31.14964 | -88.39860 | 10945 ft | 203 kts | 50° |
| 2026-04-25 16:43 | 31.15765 | -88.38499 | 10946 ft | 203 kts | 50° |
| 2026-04-25 16:43 | 31.16567 | -88.37138 | 10944 ft | 204 kts | 50° |
| 2026-04-25 16:43 | 31.17368 | -88.35773 | 10945 ft | 203 kts | 50° |
| 2026-04-25 16:44 | 31.18166 | -88.34417 | 10946 ft | 202 kts | 50° |
| 2026-04-25 16:44 | 31.18962 | -88.33065 | 10945 ft | 202 kts | 50° |
| 2026-04-25 16:44 | 31.19747 | -88.31731 | 10943 ft | 201 kts | 50° |
| 2026-04-25 16:44 | 31.20540 | -88.30384 | 10943 ft | 201 kts | 50° |
| 2026-04-25 16:45 | 31.21333 | -88.29032 | 10940 ft | 201 kts | 50° |
| 2026-04-25 16:45 | 31.22119 | -88.27694 | 10966 ft | 200 kts | 50° |
| 2026-04-25 16:45 | 31.22909 | -88.26350 | 10966 ft | 200 kts | 50° |
| 2026-04-25 16:45 | 31.23697 | -88.25009 | 10976 ft | 201 kts | 50° |
| 2026-04-25 16:46 | 31.24487 | -88.23662 | 10976 ft | 201 kts | 50° |
| 2026-04-25 16:46 | 31.25278 | -88.22314 | 10976 ft | 201 kts | 50° |
| 2026-04-25 16:46 | 31.26069 | -88.20965 | 10977 ft | 201 kts | 50° |
| 2026-04-25 16:46 | 31.26595 | -88.20068 | 10976 ft | 202 kts | 50° |
| 2026-04-25 16:47 | 31.27644 | -88.18276 | 10977 ft | 202 kts | 50° |
| 2026-04-25 16:47 | 31.28438 | -88.16922 | 10977 ft | 202 kts | 50° |
| 2026-04-25 16:47 | 31.29231 | -88.15568 | 10980 ft | 202 kts | 50° |
| 2026-04-25 16:47 | 31.30027 | -88.14208 | 10981 ft | 202 kts | 50° |
| 2026-04-25 16:48 | 31.30822 | -88.12849 | 10977 ft | 202 kts | 50° |
| 2026-04-25 16:48 | 31.31616 | -88.11492 | 10978 ft | 202 kts | 50° |
| 2026-04-25 16:48 | 31.32400 | -88.10151 | 10978 ft | 202 kts | 50° |
| 2026-04-25 16:48 | 31.33194 | -88.08793 | 10984 ft | 202 kts | 50° |
| 2026-04-25 16:49 | 31.33991 | -88.07431 | 10981 ft | 203 kts | 50° |
| 2026-04-25 16:49 | 31.34788 | -88.06066 | 10981 ft | 203 kts | 50° |
| 2026-04-25 16:49 | 31.35585 | -88.04701 | 10980 ft | 204 kts | 50° |
| 2026-04-25 16:49 | 31.36385 | -88.03331 | 10980 ft | 203 kts | 50° |
| 2026-04-25 16:50 | 31.37183 | -88.01963 | 10984 ft | 203 kts | 50° |
| 2026-04-25 16:50 | 31.37980 | -88.00597 | 10983 ft | 203 kts | 50° |
| 2026-04-25 16:50 | 31.38778 | -87.99228 | 10983 ft | 203 kts | 50° |
| 2026-04-25 16:50 | 31.39577 | -87.97859 | 10989 ft | 203 kts | 50° |
| 2026-04-25 16:51 | 31.40371 | -87.96496 | 10987 ft | 203 kts | 50° |
| 2026-04-25 16:51 | 31.41169 | -87.95126 | 10987 ft | 203 kts | 50° |
| 2026-04-25 16:51 | 31.41967 | -87.93755 | 10988 ft | 204 kts | 50° |
| 2026-04-25 16:51 | 31.42497 | -87.92846 | 10989 ft | 205 kts | 50° |
| 2026-04-25 16:52 | 31.43572 | -87.90998 | 10990 ft | 205 kts | 50° |
| 2026-04-25 16:52 | 31.44364 | -87.89637 | 10989 ft | 205 kts | 50° |
| 2026-04-25 16:52 | 31.45164 | -87.88259 | 10990 ft | 205 kts | 50° |
| 2026-04-25 16:52 | 31.45966 | -87.86881 | 10989 ft | 204 kts | 51° |
| 2026-04-25 16:53 | 31.47566 | -87.84127 | 10991 ft | 204 kts | 50° |
| 2026-04-25 16:53 | 31.48367 | -87.82749 | 10992 ft | 205 kts | 51° |
| 2026-04-25 16:53 | 31.49171 | -87.81363 | 10990 ft | 206 kts | 51° |
| 2026-04-25 16:54 | 31.49978 | -87.79973 | 10990 ft | 207 kts | 51° |
| 2026-04-25 16:54 | 31.50790 | -87.78575 | 10987 ft | 208 kts | 51° |
| 2026-04-25 16:54 | 31.51602 | -87.77173 | 10986 ft | 207 kts | 51° |
| 2026-04-25 16:54 | 31.52412 | -87.75774 | 10986 ft | 207 kts | 51° |
| 2026-04-25 16:55 | 31.53215 | -87.74389 | 10986 ft | 208 kts | 51° |
| 2026-04-25 16:55 | 31.54027 | -87.72988 | 10984 ft | 208 kts | 51° |
| 2026-04-25 16:55 | 31.54837 | -87.71589 | 10986 ft | 207 kts | 51° |
| 2026-04-25 16:55 | 31.55647 | -87.70189 | 10992 ft | 207 kts | 51° |
| 2026-04-25 16:56 | 31.56456 | -87.68791 | 10990 ft | 207 kts | 51° |
| 2026-04-25 16:56 | 31.57263 | -87.67396 | 10991 ft | 206 kts | 51° |
| 2026-04-25 16:56 | 31.58070 | -87.66000 | 10991 ft | 206 kts | 51° |
| 2026-04-25 16:56 | 31.58877 | -87.64605 | 10988 ft | 207 kts | 51° |
| 2026-04-25 16:57 | 31.59685 | -87.63205 | 10990 ft | 207 kts | 51° |
| 2026-04-25 16:57 | 31.60219 | -87.62282 | 10990 ft | 207 kts | 51° |
| 2026-04-25 16:57 | 31.61300 | -87.60410 | 10989 ft | 207 kts | 51° |
| 2026-04-25 16:57 | 31.62098 | -87.59026 | 10991 ft | 206 kts | 51° |
| 2026-04-25 16:58 | 31.62902 | -87.57631 | 10990 ft | 206 kts | 51° |
| 2026-04-25 16:58 | 31.63716 | -87.56222 | 10987 ft | 206 kts | 51° |
| 2026-04-25 16:58 | 31.64509 | -87.54847 | 10990 ft | 206 kts | 51° |
| 2026-04-25 16:58 | 31.65310 | -87.53456 | 10988 ft | 206 kts | 51° |
| 2026-04-25 16:59 | 31.66113 | -87.52063 | 10990 ft | 206 kts | 51° |
| 2026-04-25 16:59 | 31.66915 | -87.50670 | 10988 ft | 206 kts | 51° |
| 2026-04-25 16:59 | 31.67716 | -87.49279 | 10988 ft | 206 kts | 51° |
| 2026-04-25 16:59 | 31.68518 | -87.47885 | 10990 ft | 206 kts | 51° |
| 2026-04-25 17:00 | 31.69318 | -87.46495 | 10988 ft | 206 kts | 51° |
| 2026-04-25 17:00 | 31.70119 | -87.45101 | 10989 ft | 205 kts | 51° |
| 2026-04-25 17:00 | 31.70920 | -87.43709 | 10989 ft | 205 kts | 51° |
| 2026-04-25 17:00 | 31.71719 | -87.42319 | 10988 ft | 206 kts | 51° |
| 2026-04-25 17:01 | 31.72521 | -87.40923 | 10987 ft | 206 kts | 51° |
| 2026-04-25 17:01 | 31.73312 | -87.39545 | 10987 ft | 205 kts | 51° |
| 2026-04-25 17:01 | 31.74111 | -87.38153 | 10987 ft | 206 kts | 51° |
| 2026-04-25 17:01 | 31.74911 | -87.36759 | 10990 ft | 206 kts | 51° |
| 2026-04-25 17:02 | 31.75715 | -87.35359 | 10989 ft | 207 kts | 51° |
| 2026-04-25 17:02 | 31.76518 | -87.33957 | 10986 ft | 206 kts | 52° |
| 2026-04-25 17:02 | 31.77318 | -87.32561 | 10992 ft | 206 kts | 51° |
| 2026-04-25 17:02 | 31.77861 | -87.31614 | 10989 ft | 206 kts | 51° |
| 2026-04-25 17:03 | 31.78902 | -87.29796 | 10986 ft | 205 kts | 51° |
| 2026-04-25 17:03 | 31.79700 | -87.28403 | 10987 ft | 205 kts | 51° |
| 2026-04-25 17:03 | 31.80496 | -87.27011 | 10988 ft | 205 kts | 51° |
| 2026-04-25 17:03 | 31.81282 | -87.25639 | 10986 ft | 205 kts | 51° |
| 2026-04-25 17:04 | 31.82079 | -87.24246 | 10985 ft | 205 kts | 51° |
| 2026-04-25 17:04 | 31.82876 | -87.22850 | 10978 ft | 205 kts | 51° |
| 2026-04-25 17:04 | 31.83660 | -87.21479 | 10979 ft | 205 kts | 51° |
| 2026-04-25 17:04 | 31.84456 | -87.20087 | 10979 ft | 205 kts | 51° |
| 2026-04-25 17:05 | 31.85250 | -87.18697 | 10974 ft | 204 kts | 51° |
| 2026-04-25 17:05 | 31.86836 | -87.15916 | 10975 ft | 205 kts | 51° |
| 2026-04-25 17:05 | 31.87628 | -87.14528 | 10975 ft | 205 kts | 51° |
| 2026-04-25 17:06 | 31.88422 | -87.13138 | 10976 ft | 205 kts | 51° |
| 2026-04-25 17:06 | 31.89221 | -87.11735 | 10976 ft | 205 kts | 51° |
| 2026-04-25 17:06 | 31.90016 | -87.10340 | 10975 ft | 205 kts | 52° |
| 2026-04-25 17:06 | 31.90811 | -87.08946 | 10963 ft | 205 kts | 51° |
| 2026-04-25 17:07 | 31.91595 | -87.07569 | 10965 ft | 205 kts | 52° |
| 2026-04-25 17:07 | 31.92388 | -87.06175 | 10965 ft | 205 kts | 52° |
| 2026-04-25 17:07 | 31.93183 | -87.04778 | 10959 ft | 205 kts | 51° |
| 2026-04-25 17:07 | 31.93960 | -87.03413 | 10959 ft | 205 kts | 52° |
| 2026-04-25 17:08 | 31.94756 | -87.02013 | 10955 ft | 205 kts | 52° |
| 2026-04-25 17:08 | 31.95551 | -87.00615 | 10957 ft | 205 kts | 52° |
| 2026-04-25 17:08 | 31.96345 | -86.99217 | 10958 ft | 205 kts | 52° |
| 2026-04-25 17:08 | 31.97136 | -86.97824 | 10959 ft | 205 kts | 51° |
| 2026-04-25 17:09 | 31.97929 | -86.96428 | 10958 ft | 205 kts | 52° |
| 2026-04-25 17:09 | 31.98722 | -86.95031 | 10960 ft | 205 kts | 52° |
| 2026-04-25 17:09 | 31.99513 | -86.93637 | 10924 ft | 205 kts | 51° |
| 2026-04-25 17:09 | 32.00295 | -86.92259 | 10926 ft | 204 kts | 51° |
| 2026-04-25 17:10 | 32.01085 | -86.90864 | 10929 ft | 204 kts | 51° |
| 2026-04-25 17:10 | 32.01874 | -86.89472 | 10931 ft | 204 kts | 51° |
| 2026-04-25 17:10 | 32.02662 | -86.88082 | 10932 ft | 204 kts | 51° |
| 2026-04-25 17:10 | 32.03451 | -86.86689 | 10933 ft | 204 kts | 51° |
| 2026-04-25 17:11 | 32.04241 | -86.85295 | 10940 ft | 204 kts | 51° |
| 2026-04-25 17:11 | 32.05030 | -86.83900 | 10941 ft | 205 kts | 51° |
| 2026-04-25 17:11 | 32.05820 | -86.82503 | 10941 ft | 204 kts | 51° |
| 2026-04-25 17:11 | 32.06608 | -86.81110 | 10943 ft | 205 kts | 51° |
| 2026-04-25 17:12 | 32.07397 | -86.79714 | 10940 ft | 204 kts | 51° |
| 2026-04-25 17:12 | 32.08187 | -86.78317 | 10919 ft | 204 kts | 51° |
| 2026-04-25 17:12 | 32.08974 | -86.76923 | 10918 ft | 204 kts | 51° |
| 2026-04-25 17:12 | 32.09762 | -86.75528 | 10916 ft | 204 kts | 52° |
| 2026-04-25 17:13 | 32.10550 | -86.74132 | 10918 ft | 204 kts | 51° |
| 2026-04-25 17:13 | 32.10805 | -86.73679 | 10918 ft | 204 kts | 51° |
| 2026-04-25 17:13 | 32.12112 | -86.71364 | 10914 ft | 204 kts | 51° |
| 2026-04-25 17:13 | 32.12882 | -86.69997 | 10912 ft | 203 kts | 51° |
| 2026-04-25 17:14 | 32.13669 | -86.68602 | 10919 ft | 205 kts | 52° |
| 2026-04-25 17:14 | 32.14462 | -86.67195 | 10939 ft | 207 kts | 52° |
| 2026-04-25 17:14 | 32.15261 | -86.65778 | 10944 ft | 208 kts | 52° |
| 2026-04-25 17:14 | 32.16065 | -86.64350 | 10955 ft | 210 kts | 51° |
| 2026-04-25 17:15 | 32.16890 | -86.62888 | 10973 ft | 218 kts | 52° |
| 2026-04-25 17:15 | 32.17732 | -86.61376 | 10978 ft | 223 kts | 52° |
| 2026-04-25 17:15 | 32.18590 | -86.59845 | 10983 ft | 224 kts | 52° |
| 2026-04-25 17:15 | 32.19456 | -86.58318 | 10985 ft | 223 kts | 52° |
| 2026-04-25 17:16 | 32.20311 | -86.56800 | 10995 ft | 222 kts | 52° |
| 2026-04-25 17:16 | 32.21151 | -86.55304 | 10991 ft | 221 kts | 52° |
| 2026-04-25 17:16 | 32.21998 | -86.53792 | 10991 ft | 219 kts | 52° |
| 2026-04-25 17:16 | 32.22833 | -86.52303 | 10990 ft | 215 kts | 51° |
| 2026-04-25 17:17 | 32.23661 | -86.50837 | 10996 ft | 213 kts | 52° |
| 2026-04-25 17:17 | 32.24471 | -86.49385 | 10999 ft | 210 kts | 52° |
| 2026-04-25 17:17 | 32.25269 | -86.47959 | 11006 ft | 207 kts | 52° |
| 2026-04-25 17:17 | 32.26057 | -86.46554 | 11003 ft | 206 kts | 52° |
| 2026-04-25 17:18 | 32.26848 | -86.45145 | 11003 ft | 205 kts | 51° |
| 2026-04-25 17:18 | 32.27637 | -86.43737 | 11011 ft | 206 kts | 51° |
| 2026-04-25 17:18 | 32.28433 | -86.42315 | 11016 ft | 209 kts | 52° |
| 2026-04-25 17:18 | 32.29241 | -86.40875 | 11017 ft | 210 kts | 51° |
| 2026-04-25 17:19 | 32.30057 | -86.39429 | 11011 ft | 213 kts | 51° |
| 2026-04-25 17:19 | 32.30979 | -86.38077 | 11011 ft | 211 kts | 45° |
| 2026-04-25 17:19 | 32.31906 | -86.36746 | 11011 ft | 209 kts | 45° |
| 2026-04-25 17:19 | 32.32822 | -86.35422 | 11008 ft | 207 kts | 46° |
| 2026-04-25 17:20 | 32.33735 | -86.34103 | 11005 ft | 206 kts | 46° |
| 2026-04-25 17:20 | 32.34643 | -86.32792 | 10975 ft | 206 kts | 45° |
| 2026-04-25 17:20 | 32.35526 | -86.31517 | 10974 ft | 205 kts | 46° |
| 2026-04-25 17:20 | 32.36432 | -86.30209 | 10972 ft | 205 kts | 45° |
| 2026-04-25 17:21 | 32.37334 | -86.28905 | 10977 ft | 205 kts | 46° |
| 2026-04-25 17:21 | 32.38226 | -86.27615 | 10977 ft | 205 kts | 46° |
| 2026-04-25 17:21 | 32.39127 | -86.26312 | 10974 ft | 204 kts | 45° |
| 2026-04-25 17:21 | 32.40028 | -86.25009 | 10977 ft | 204 kts | 46° |
| 2026-04-25 17:22 | 32.40930 | -86.23705 | 10975 ft | 205 kts | 46° |
| 2026-04-25 17:22 | 32.41237 | -86.23261 | 10981 ft | 206 kts | 46° |
| 2026-04-25 17:22 | 32.42734 | -86.21091 | 10978 ft | 206 kts | 46° |
| 2026-04-25 17:22 | 32.43651 | -86.19763 | 10976 ft | 205 kts | 46° |
| 2026-04-25 17:23 | 32.44553 | -86.18455 | 10991 ft | 204 kts | 46° |
| 2026-04-25 17:23 | 32.45451 | -86.17153 | 10987 ft | 205 kts | 46° |
| 2026-04-25 17:23 | 32.46340 | -86.15864 | 10983 ft | 204 kts | 46° |
| 2026-04-25 17:23 | 32.47239 | -86.14560 | 10984 ft | 204 kts | 46° |
| 2026-04-25 17:24 | 32.48138 | -86.13256 | 10994 ft | 205 kts | 46° |
| 2026-04-25 17:24 | 32.49046 | -86.11938 | 10994 ft | 207 kts | 46° |
| 2026-04-25 17:24 | 32.49962 | -86.10608 | 11003 ft | 210 kts | 46° |
| 2026-04-25 17:24 | 32.50891 | -86.09257 | 11004 ft | 212 kts | 46° |
| 2026-04-25 17:25 | 32.51828 | -86.07897 | 10997 ft | 214 kts | 46° |
| 2026-04-25 17:25 | 32.52768 | -86.06529 | 10996 ft | 214 kts | 46° |
| 2026-04-25 17:25 | 32.53700 | -86.05171 | 10995 ft | 212 kts | 46° |
| 2026-04-25 17:25 | 32.54629 | -86.03820 | 10997 ft | 211 kts | 46° |
| 2026-04-25 17:26 | 32.55557 | -86.02470 | 10991 ft | 211 kts | 46° |
| 2026-04-25 17:26 | 32.56478 | -86.01129 | 10998 ft | 209 kts | 46° |
| 2026-04-25 17:26 | 32.57398 | -85.99789 | 11000 ft | 209 kts | 46° |
| 2026-04-25 17:26 | 32.58313 | -85.98457 | 10999 ft | 208 kts | 46° |
| 2026-04-25 17:27 | 32.59215 | -85.97142 | 10997 ft | 208 kts | 47° |
| 2026-04-25 17:27 | 32.60126 | -85.95814 | 10998 ft | 208 kts | 47° |
| 2026-04-25 17:27 | 32.61038 | -85.94483 | 11001 ft | 208 kts | 47° |
| 2026-04-25 17:27 | 32.61345 | -85.94035 | 10997 ft | 207 kts | 47° |
| 2026-04-25 17:28 | 32.62861 | -85.91823 | 11000 ft | 207 kts | 46° |
| 2026-04-25 17:28 | 32.63769 | -85.90497 | 11000 ft | 207 kts | 47° |
| 2026-04-25 17:28 | 32.64678 | -85.89168 | 11000 ft | 207 kts | 46° |
| 2026-04-25 17:28 | 32.65576 | -85.87857 | 11001 ft | 207 kts | 47° |
| 2026-04-25 17:29 | 32.66485 | -85.86528 | 11005 ft | 207 kts | 47° |
| 2026-04-25 17:29 | 32.67392 | -85.85202 | 11006 ft | 207 kts | 47° |
| 2026-04-25 17:29 | 32.68299 | -85.83876 | 11006 ft | 207 kts | 47° |
| 2026-04-25 17:29 | 32.69207 | -85.82546 | 11005 ft | 207 kts | 46° |
| 2026-04-25 17:30 | 32.69820 | -85.81651 | 11009 ft | 207 kts | 46° |
| 2026-04-25 17:30 | 32.70712 | -85.80343 | 11009 ft | 207 kts | 47° |
| 2026-04-25 17:30 | 32.71619 | -85.79015 | 11010 ft | 207 kts | 47° |
| 2026-04-25 17:30 | 32.72525 | -85.77688 | 11010 ft | 207 kts | 47° |
| 2026-04-25 17:31 | 32.73430 | -85.76360 | 11008 ft | 207 kts | 46° |
| 2026-04-25 17:31 | 32.74337 | -85.75031 | 11007 ft | 206 kts | 47° |
| 2026-04-25 17:31 | 32.75239 | -85.73707 | 11005 ft | 206 kts | 46° |
| 2026-04-25 17:31 | 32.76143 | -85.72382 | 11009 ft | 206 kts | 47° |
| 2026-04-25 17:32 | 32.77044 | -85.71059 | 11011 ft | 206 kts | 47° |
| 2026-04-25 17:32 | 32.77946 | -85.69734 | 11008 ft | 206 kts | 46° |
| 2026-04-25 17:32 | 32.78836 | -85.68427 | 11011 ft | 206 kts | 47° |
| 2026-04-25 17:32 | 32.79737 | -85.67102 | 11018 ft | 206 kts | 47° |
| 2026-04-25 17:33 | 32.80640 | -85.65775 | 11018 ft | 207 kts | 47° |
| 2026-04-25 17:33 | 32.81545 | -85.64444 | 11030 ft | 207 kts | 47° |
| 2026-04-25 17:33 | 32.82452 | -85.63110 | 11023 ft | 207 kts | 47° |
| 2026-04-25 17:33 | 32.83357 | -85.61779 | 11023 ft | 207 kts | 47° |
| 2026-04-25 17:34 | 32.84264 | -85.60443 | 11021 ft | 207 kts | 47° |
| 2026-04-25 17:34 | 32.85167 | -85.59113 | 11021 ft | 207 kts | 47° |
| 2026-04-25 17:34 | 32.86071 | -85.57782 | 11023 ft | 206 kts | 47° |
| 2026-04-25 17:34 | 32.86973 | -85.56452 | 11022 ft | 206 kts | 47° |
| 2026-04-25 17:35 | 32.87875 | -85.55124 | 11021 ft | 207 kts | 47° |
| 2026-04-25 17:35 | 32.88766 | -85.53809 | 11019 ft | 206 kts | 47° |
| 2026-04-25 17:35 | 32.89670 | -85.52475 | 11019 ft | 207 kts | 47° |
| 2026-04-25 17:35 | 32.90572 | -85.51145 | 11018 ft | 206 kts | 47° |
| 2026-04-25 17:36 | 32.91474 | -85.49812 | 11018 ft | 207 kts | 47° |
| 2026-04-25 17:36 | 32.92375 | -85.48482 | 11017 ft | 206 kts | 47° |
| 2026-04-25 17:36 | 32.93260 | -85.47175 | 11016 ft | 206 kts | 47° |
| 2026-04-25 17:36 | 32.94161 | -85.45844 | 11015 ft | 206 kts | 47° |
| 2026-04-25 17:37 | 32.95057 | -85.44518 | 11014 ft | 206 kts | 47° |
| 2026-04-25 17:37 | 32.95957 | -85.43188 | 11012 ft | 206 kts | 47° |
| 2026-04-25 17:37 | 32.96814 | -85.41917 | 11006 ft | 206 kts | 47° |
| 2026-04-25 17:37 | 32.97740 | -85.40549 | 11008 ft | 207 kts | 47° |
| 2026-04-25 17:38 | 32.98648 | -85.39207 | 10960 ft | 214 kts | 47° |
| 2026-04-25 17:38 | 32.99283 | -85.38266 | 10963 ft | 215 kts | 47° |
| 2026-04-25 17:38 | 33.00637 | -85.36578 | 10957 ft | 209 kts | 31° |
| 2026-04-25 17:38 | 33.01810 | -85.35575 | 10953 ft | 207 kts | 31° |
| 2026-04-25 17:39 | 33.02965 | -85.34553 | 10961 ft | 206 kts | 32° |
| 2026-04-25 17:39 | 33.04116 | -85.33537 | 10952 ft | 205 kts | 31° |
| 2026-04-25 17:39 | 33.05264 | -85.32528 | 10954 ft | 205 kts | 31° |
| 2026-04-25 17:39 | 33.06401 | -85.31528 | 10958 ft | 206 kts | 31° |
| 2026-04-25 17:40 | 33.07583 | -85.30489 | 10965 ft | 206 kts | 31° |
| 2026-04-25 17:40 | 33.08715 | -85.29493 | 10966 ft | 207 kts | 31° |
| 2026-04-25 17:40 | 33.09872 | -85.28472 | 10969 ft | 207 kts | 32° |
| 2026-04-25 17:40 | 33.11038 | -85.27447 | 10971 ft | 209 kts | 31° |
| 2026-04-25 17:41 | 33.12208 | -85.26417 | 10963 ft | 208 kts | 32° |
| 2026-04-25 17:41 | 33.13370 | -85.25395 | 10965 ft | 207 kts | 31° |
| 2026-04-25 17:41 | 33.14520 | -85.24376 | 10960 ft | 206 kts | 32° |
| 2026-04-25 17:41 | 33.15666 | -85.23364 | 10956 ft | 205 kts | 31° |
| 2026-04-25 17:42 | 33.16820 | -85.22353 | 10953 ft | 205 kts | 31° |
| 2026-04-25 17:42 | 33.17957 | -85.21345 | 10952 ft | 204 kts | 32° |
| 2026-04-25 17:42 | 33.19102 | -85.20336 | 10952 ft | 204 kts | 31° |
| 2026-04-25 17:42 | 33.20244 | -85.19333 | 10950 ft | 204 kts | 31° |
| 2026-04-25 17:43 | 33.21378 | -85.18326 | 10949 ft | 203 kts | 32° |
| 2026-04-25 17:43 | 33.22513 | -85.17322 | 10951 ft | 203 kts | 31° |
| 2026-04-25 17:43 | 33.23645 | -85.16323 | 10958 ft | 202 kts | 31° |
| 2026-04-25 17:43 | 33.24779 | -85.15321 | 10951 ft | 202 kts | 31° |
| 2026-04-25 17:44 | 33.25943 | -85.14399 | 10954 ft | 198 kts | 18° |
| 2026-04-25 17:44 | 33.27246 | -85.13980 | 10956 ft | 193 kts | 4° |
| 2026-04-25 17:44 | 33.28563 | -85.13664 | 10956 ft | 193 kts | 5° |
| 2026-04-25 17:44 | 33.29885 | -85.13340 | 10957 ft | 194 kts | 5° |
| 2026-04-25 17:45 | 33.31212 | -85.13018 | 10961 ft | 194 kts | 5° |
| 2026-04-25 17:45 | 33.32022 | -85.12822 | 10956 ft | 194 kts | 5° |
| 2026-04-25 17:45 | 33.33804 | -85.12389 | 10967 ft | 194 kts | 5° |
| 2026-04-25 17:45 | 33.35126 | -85.12069 | 10981 ft | 194 kts | 5° |
| 2026-04-25 17:46 | 33.36430 | -85.11752 | 10984 ft | 194 kts | 5° |
| 2026-04-25 17:46 | 33.37751 | -85.11431 | 10984 ft | 194 kts | 5° |
| 2026-04-25 17:46 | 33.39078 | -85.11109 | 10991 ft | 195 kts | 5° |
| 2026-04-25 17:46 | 33.40412 | -85.10784 | 10994 ft | 195 kts | 5° |
| 2026-04-25 17:47 | 33.41743 | -85.10460 | 11003 ft | 195 kts | 5° |
| 2026-04-25 17:47 | 33.43073 | -85.10136 | 11001 ft | 195 kts | 5° |
| 2026-04-25 17:47 | 33.44404 | -85.09812 | 11004 ft | 195 kts | 5° |
| 2026-04-25 17:47 | 33.45733 | -85.09488 | 11008 ft | 195 kts | 5° |
| 2026-04-25 17:48 | 33.48372 | -85.08846 | 11025 ft | 194 kts | 5° |
| 2026-04-25 17:48 | 33.49698 | -85.08520 | 11019 ft | 194 kts | 5° |
| 2026-04-25 17:48 | 33.51025 | -85.08199 | 11025 ft | 195 kts | 5° |
| 2026-04-25 17:49 | 33.52357 | -85.07875 | 11029 ft | 195 kts | 5° |
| 2026-04-25 17:49 | 33.53686 | -85.07550 | 11032 ft | 195 kts | 5° |
| 2026-04-25 17:49 | 33.55015 | -85.07225 | 11036 ft | 195 kts | 5° |
| 2026-04-25 17:49 | 33.56339 | -85.06902 | 11039 ft | 195 kts | 5° |
| 2026-04-25 17:50 | 33.57670 | -85.06577 | 11040 ft | 194 kts | 5° |
| 2026-04-25 17:50 | 33.58993 | -85.06254 | 11049 ft | 194 kts | 5° |
| 2026-04-25 17:50 | 33.60314 | -85.05931 | 11048 ft | 194 kts | 5° |
| 2026-04-25 17:50 | 33.61639 | -85.05607 | 11048 ft | 194 kts | 5° |
| 2026-04-25 17:51 | 33.62965 | -85.05283 | 11053 ft | 194 kts | 5° |
| 2026-04-25 17:51 | 33.64270 | -85.04964 | 11046 ft | 194 kts | 5° |
| 2026-04-25 17:51 | 33.65594 | -85.04640 | 11044 ft | 194 kts | 5° |
| 2026-04-25 17:51 | 33.66916 | -85.04316 | 11051 ft | 194 kts | 5° |
| 2026-04-25 17:52 | 33.68241 | -85.03992 | 11048 ft | 195 kts | 5° |
| 2026-04-25 17:52 | 33.68691 | -85.03882 | 11039 ft | 195 kts | 5° |
| 2026-04-25 17:52 | 33.70900 | -85.03341 | 11033 ft | 195 kts | 5° |
| 2026-04-25 17:52 | 33.72228 | -85.03014 | 11030 ft | 195 kts | 5° |
| 2026-04-25 17:53 | 33.73575 | -85.02687 | 10909 ft | 201 kts | 5° |
| 2026-04-25 17:53 | 33.74945 | -85.02350 | 10741 ft | 202 kts | 6° |
| 2026-04-25 17:53 | 33.76324 | -85.02011 | 10536 ft | 202 kts | 6° |
| 2026-04-25 17:53 | 33.77704 | -85.01672 | 10374 ft | 203 kts | 6° |
| 2026-04-25 17:54 | 33.79090 | -85.01331 | 10210 ft | 204 kts | 6° |
| 2026-04-25 17:54 | 33.80414 | -85.00707 | 10092 ft | 209 kts | 29° |
| 2026-04-25 17:54 | 33.81598 | -84.99702 | 9979 ft | 208 kts | 31° |
| 2026-04-25 17:54 | 33.82787 | -84.98707 | 9864 ft | 207 kts | 30° |
| 2026-04-25 17:55 | 33.83974 | -84.97717 | 9740 ft | 207 kts | 30° |
| 2026-04-25 17:55 | 33.85155 | -84.96724 | 9626 ft | 207 kts | 31° |
| 2026-04-25 17:55 | 33.86324 | -84.95749 | 9499 ft | 207 kts | 31° |
| 2026-04-25 17:55 | 33.87493 | -84.94748 | 9372 ft | 206 kts | 30° |
| 2026-04-25 17:56 | 33.88680 | -84.93785 | 9249 ft | 206 kts | 28° |
| 2026-04-25 17:56 | 33.89868 | -84.92809 | 9122 ft | 207 kts | 32° |
| 2026-04-25 17:56 | 33.91033 | -84.91794 | 8991 ft | 206 kts | 31° |
| 2026-04-25 17:56 | 33.92209 | -84.90807 | 8861 ft | 205 kts | 31° |
| 2026-04-25 17:57 | 33.93375 | -84.89824 | 8736 ft | 205 kts | 30° |
| 2026-04-25 17:57 | 33.94543 | -84.88823 | 8601 ft | 207 kts | 33° |
| 2026-04-25 17:57 | 33.95719 | -84.87834 | 8480 ft | 205 kts | 30° |
| 2026-04-25 17:57 | 33.96118 | -84.87510 | 8439 ft | 205 kts | 29° |
| 2026-04-25 17:58 | 33.98069 | -84.85903 | 8230 ft | 206 kts | 31° |
| 2026-04-25 17:58 | 33.99201 | -84.84937 | 8105 ft | 205 kts | 31° |
| 2026-04-25 17:58 | 34.00349 | -84.83909 | 7978 ft | 208 kts | 41° |
| 2026-04-25 17:58 | 34.01171 | -84.82468 | 7818 ft | 212 kts | 66° |
| 2026-04-25 17:59 | 34.01633 | -84.80784 | 7684 ft | 212 kts | 71° |
| 2026-04-25 17:59 | 34.02138 | -84.79111 | 7521 ft | 212 kts | 68° |
| 2026-04-25 17:59 | 34.02649 | -84.77471 | 7389 ft | 212 kts | 68° |
| 2026-04-25 17:59 | 34.03178 | -84.75780 | 7245 ft | 214 kts | 70° |
| 2026-04-25 18:00 | 34.03670 | -84.74103 | 7100 ft | 215 kts | 70° |
| 2026-04-25 18:00 | 34.04171 | -84.72377 | 6957 ft | 216 kts | 71° |
| 2026-04-25 18:00 | 34.04671 | -84.70695 | 6822 ft | 216 kts | 70° |
| 2026-04-25 18:00 | 34.05180 | -84.68993 | 6678 ft | 216 kts | 70° |
| 2026-04-25 18:01 | 34.05684 | -84.67291 | 6539 ft | 215 kts | 70° |
| 2026-04-25 18:01 | 34.06191 | -84.65591 | 6398 ft | 216 kts | 70° |
| 2026-04-25 18:01 | 34.06700 | -84.63880 | 6252 ft | 217 kts | 70° |
| 2026-04-25 18:01 | 34.07209 | -84.62159 | 6099 ft | 218 kts | 70° |
| 2026-04-25 18:02 | 34.07718 | -84.60438 | 5950 ft | 218 kts | 70° |
| 2026-04-25 18:02 | 34.08230 | -84.58710 | 5805 ft | 219 kts | 71° |
| 2026-04-25 18:02 | 34.08746 | -84.56986 | 5643 ft | 216 kts | 70° |
| 2026-04-25 18:02 | 34.09238 | -84.55313 | 5471 ft | 213 kts | 71° |
| 2026-04-25 18:03 | 34.09732 | -84.53632 | 5302 ft | 211 kts | 71° |
| 2026-04-25 18:03 | 34.10221 | -84.51980 | 5131 ft | 209 kts | 70° |
| 2026-04-25 18:03 | 34.10711 | -84.50337 | 4983 ft | 205 kts | 71° |
| 2026-04-25 18:03 | 34.11184 | -84.48737 | 4980 ft | 202 kts | 71° |
| 2026-04-25 18:04 | 34.11655 | -84.47127 | 4978 ft | 203 kts | 71° |
| 2026-04-25 18:04 | 34.12127 | -84.45532 | 4973 ft | 201 kts | 70° |
| 2026-04-25 18:04 | 34.12598 | -84.43940 | 4968 ft | 201 kts | 70° |
| 2026-04-25 18:04 | 34.13056 | -84.42355 | 4954 ft | 200 kts | 75° |
| 2026-04-25 18:05 | 34.13354 | -84.40719 | 4954 ft | 199 kts | 78° |
| 2026-04-25 18:05 | 34.13652 | -84.39092 | 4955 ft | 198 kts | 77° |
| 2026-04-25 18:05 | 34.13938 | -84.37473 | 4954 ft | 197 kts | 81° |
| 2026-04-25 18:05 | 34.14139 | -84.35869 | 4956 ft | 197 kts | 83° |
| 2026-04-25 18:06 | 34.14340 | -84.34221 | 4953 ft | 200 kts | 83° |
| 2026-04-25 18:06 | 34.14535 | -84.32562 | 4953 ft | 199 kts | 83° |
| 2026-04-25 18:06 | 34.14733 | -84.30919 | 4853 ft | 203 kts | 84° |
| 2026-04-25 18:06 | 34.14923 | -84.29211 | 4738 ft | 207 kts | 84° |
| 2026-04-25 18:07 | 34.15127 | -84.27470 | 4614 ft | 211 kts | 83° |
| 2026-04-25 18:07 | 34.15333 | -84.25725 | 4479 ft | 208 kts | 84° |
| 2026-04-25 18:07 | 34.15477 | -84.24001 | 4342 ft | 205 kts | 97° |
| 2026-04-25 18:07 | 34.14979 | -84.22451 | 4221 ft | 196 kts | 134° |
| 2026-04-25 18:08 | 34.13903 | -84.21633 | 4089 ft | 176 kts | 172° |
| 2026-04-25 18:08 | 34.12718 | -84.21615 | 3975 ft | 170 kts | 185° |
| 2026-04-25 18:08 | 34.11575 | -84.21591 | 3953 ft | 156 kts | 182° |
| 2026-04-25 18:08 | 34.10534 | -84.21526 | 3955 ft | 143 kts | 183° |
| 2026-04-25 18:09 | 34.09559 | -84.21481 | 3952 ft | 136 kts | 182° |
| 2026-04-25 18:09 | 34.08638 | -84.21445 | 3953 ft | 131 kts | 186° |
| 2026-04-25 18:09 | 34.07723 | -84.21380 | 3954 ft | 135 kts | 181° |
| 2026-04-25 18:09 | 34.07401 | -84.21349 | 3967 ft | 138 kts | 180° |
| 2026-04-25 18:10 | 34.05863 | -84.21833 | 3981 ft | 144 kts | 205° |
| 2026-04-25 18:10 | 34.04918 | -84.22268 | 3984 ft | 147 kts | 205° |
| 2026-04-25 18:10 | 34.03933 | -84.22711 | 3878 ft | 155 kts | 203° |
| 2026-04-25 18:10 | 34.02911 | -84.23204 | 3732 ft | 161 kts | 212° |
| 2026-04-25 18:11 | 34.01844 | -84.23694 | 3604 ft | 166 kts | 201° |
| 2026-04-25 18:11 | 34.00758 | -84.24138 | 3485 ft | 169 kts | 202° |
| 2026-04-25 18:11 | 33.99691 | -84.24618 | 3359 ft | 162 kts | 203° |
| 2026-04-25 18:11 | 33.98642 | -84.25100 | 3191 ft | 161 kts | 202° |
| 2026-04-25 18:12 | 33.97600 | -84.25596 | 2974 ft | 161 kts | 204° |
| 2026-04-25 18:12 | 33.96567 | -84.26043 | 2775 ft | 151 kts | 201° |
| 2026-04-25 18:12 | 33.95618 | -84.26451 | 2585 ft | 138 kts | 204° |
| 2026-04-25 18:12 | 33.94784 | -84.26827 | 2413 ft | 121 kts | 201° |
| 2026-04-25 18:13 | 33.93988 | -84.27183 | 2265 ft | 125 kts | 204° |
| 2026-04-25 18:13 | 33.93176 | -84.27524 | 2087 ft | 122 kts | 202° |
| 2026-04-25 18:13 | 33.92395 | -84.27913 | 1927 ft | 121 kts | 203° |
| 2026-04-25 18:14 | 33.90816 | -84.28578 | 1692 ft | 117 kts | 198° |
| 2026-04-25 18:14 | 33.90116 | -84.28922 | 1567 ft | 98 kts | 202° |
| 2026-04-25 18:14 | 33.89499 | -84.29217 | 1437 ft | 94 kts | 202° |
| 2026-04-25 18:14 | 33.88854 | -84.29504 | 1192 ft | 102 kts | 200° |
| 2026-04-25 18:15 | 33.88229 | -84.29785 | 1024 ft | 93 kts | 202° |
| 2026-04-25 18:15 | 33.87751 | -84.29997 | 999 ft | 57 kts | 202° |
| 2026-04-25 18:15 | 33.87488 | -84.30116 | 997 ft | 20 kts | 199° |
| 2026-04-25 18:15 | 33.87456 | -84.30178 | 997 ft | 7 kts | 265° |
| 2026-04-25 18:16 | 33.87453 | -84.30222 | 997 ft | 0 kts | 266° |
| 2026-04-25 18:16 | 33.87453 | -84.30226 | 997 ft | 0 kts | 266° |
| 2026-04-25 18:17 | 33.87452 | -84.30243 | 997 ft | 6 kts | 265° |
| 2026-04-25 18:17 | 33.87446 | -84.30332 | 997 ft | 13 kts | 265° |
| 2026-04-25 18:17 | 33.87445 | -84.30402 | 998 ft | 7 kts | 310° |
| 2026-04-25 18:17 | 33.87519 | -84.30367 | 997 ft | 17 kts | 22° |
| 2026-04-25 18:18 | 33.87647 | -84.30309 | 996 ft | 20 kts | 19° |
| 2026-04-25 18:18 | 33.87774 | -84.30253 | 994 ft | 15 kts | 18° |
| 2026-04-25 18:18 | 33.87859 | -84.30275 | 994 ft | 14 kts | 338° |
| 2026-04-25 18:18 | 33.87962 | -84.30326 | 994 ft | 17 kts | 339° |
| 2026-04-25 18:19 | 33.88079 | -84.30383 | 991 ft | 19 kts | 338° |
| 2026-04-25 18:19 | 33.88148 | -84.30384 | 990 ft | 10 kts | 336° |
| 2026-04-25 18:19 | 33.88231 | -84.30426 | 991 ft | 14 kts | 342° |
| 2026-04-25 18:19 | 33.88317 | -84.30425 | 992 ft | 9 kts | 50° |
| 2026-04-25 18:20 | 33.88290 | -84.30370 | 993 ft | 6 kts | 182° |
| 2026-04-25 18:20 | 33.88288 | -84.30370 | 993 ft | 0 kts | 181° |